Vremea mâine în Negrești Oaș - Romania

Vrei sa afli care e starea vremii acum in Maramures - Romania? Dorim sa iti furnizam starea vremii pentru Maramures - Romania. Starea vremii Maramures - Romania pentru astazi.

Vremea mâine în Negrești Oaș

Temperatura minimă:
5 °C

Temperatura maximă:
20.2 °C

Mâine va fi: Senin
Precipitații: 0 %
Umiditate: 69%
Viteza maximă vânt mâine:
7.9 km/h

Evoluția vremii in Negrești Oaș pe ore mâine

Ora: 02:00
Temperatura: °C
Sansa de precipitatii: %
Ora Descriere Temp Se simte Precipitatii Umiditate Vant
00:00Senin6.8°6.1°0%81%ENE 5 KM/H
01:00Senin6.5°5.8°0%82%E 5 KM/H
02:00Senin6.1°5.5°0%84%E 4.7 KM/H
03:00Senin5.7°5.2°0%86%E 4.3 KM/H
04:00Senin5.5°4.7°0%87%E 4.7 KM/H
05:00Senin5.1°4.5°0%88%E 4.3 KM/H
06:00Senin4.5°0%89%E 4 KM/H
07:00Senin6.1°5.8°0%85%E 4 KM/H
08:00Senin11°11°0%74%E 1.8 KM/H
09:00Senin13.5°13.5°0%66%SSW 1.1 KM/H
10:00Senin15.5°15.5°0%60%WSW 2.9 KM/H
11:00Senin17°17°0%54%WSW 4 KM/H
12:00Senin18.3°18.3°0%50%WSW 5.4 KM/H
13:00Senin19.2°19.2°0%48%WSW 6.5 KM/H
14:00Senin19.8°19.8°0%47%W 6.8 KM/H
15:00Senin20.1°20.1°0%46%W 7.2 KM/H
16:00Senin20.2°20.2°0%47%W 7.6 KM/H
17:00Senin20°20°0%49%W 7.9 KM/H
18:00Senin19.5°19.5°0%51%WNW 7.6 KM/H
19:00Senin18.4°18.4°0%61%WNW 5.4 KM/H
20:00Senin13.4°13.8°0%72%NNW 4.3 KM/H
21:00Senin11°10.9°0%79%NNE 5 KM/H
22:00Senin10.3°10.1°0%80%ENE 5 KM/H
23:00Senin9.9°9.7°0%81%ENE 5 KM/H




tutorials